sensor_id;sensor_type;location;lat;lon;timestamp;P1;durP1;ratioP1;P2;durP2;ratioP2
35632;SDS011;21754;48.216;-1.628;2023-05-07T00:00:57;3.63;;;2.22;;
35632;SDS011;21754;48.216;-1.628;2023-05-07T00:03:24;5.77;;;2.50;;
35632;SDS011;21754;48.216;-1.628;2023-05-07T00:05:51;4.85;;;1.95;;
35632;SDS011;21754;48.216;-1.628;2023-05-07T00:08:18;7.60;;;2.15;;
35632;SDS011;21754;48.216;-1.628;2023-05-07T00:10:44;6.47;;;2.42;;
35632;SDS011;21754;48.216;-1.628;2023-05-07T00:13:11;4.97;;;2.67;;
35632;SDS011;21754;48.216;-1.628;2023-05-07T00:15:37;3.70;;;2.38;;
35632;SDS011;21754;48.216;-1.628;2023-05-07T00:18:03;8.18;;;3.35;;
35632;SDS011;21754;48.216;-1.628;2023-05-07T00:20:29;4.00;;;3.22;;
35632;SDS011;21754;48.216;-1.628;2023-05-07T00:22:55;9.50;;;3.45;;
35632;SDS011;21754;48.216;-1.628;2023-05-07T00:25:21;16.38;;;2.60;;
35632;SDS011;21754;48.216;-1.628;2023-05-07T00:27:47;5.78;;;2.38;;
35632;SDS011;21754;48.216;-1.628;2023-05-07T00:30:13;7.70;;;2.35;;
35632;SDS011;21754;48.216;-1.628;2023-05-07T00:32:40;3.55;;;1.90;;
35632;SDS011;21754;48.216;-1.628;2023-05-07T00:35:06;5.75;;;2.42;;
35632;SDS011;21754;48.216;-1.628;2023-05-07T00:37:32;8.52;;;1.60;;
35632;SDS011;21754;48.216;-1.628;2023-05-07T00:39:58;4.50;;;2.75;;
35632;SDS011;21754;48.216;-1.628;2023-05-07T00:42:24;11.32;;;3.45;;
35632;SDS011;21754;48.216;-1.628;2023-05-07T00:44:50;3.88;;;2.17;;
35632;SDS011;21754;48.216;-1.628;2023-05-07T00:47:17;2.85;;;1.83;;
35632;SDS011;21754;48.216;-1.628;2023-05-07T00:49:43;5.95;;;2.83;;
35632;SDS011;21754;48.216;-1.628;2023-05-07T00:52:13;6.28;;;2.60;;
35632;SDS011;21754;48.216;-1.628;2023-05-07T00:54:40;9.75;;;2.58;;
35632;SDS011;21754;48.216;-1.628;2023-05-07T00:57:06;6.68;;;1.58;;
35632;SDS011;21754;48.216;-1.628;2023-05-07T00:59:32;9.68;;;2.40;;
35632;SDS011;21754;48.216;-1.628;2023-05-07T01:01:59;8.02;;;2.50;;
35632;SDS011;21754;48.216;-1.628;2023-05-07T01:04:25;6.80;;;2.75;;
35632;SDS011;21754;48.216;-1.628;2023-05-07T01:06:52;8.88;;;2.85;;
35632;SDS011;21754;48.216;-1.628;2023-05-07T01:09:19;3.93;;;1.70;;
35632;SDS011;21754;48.216;-1.628;2023-05-07T01:11:45;7.28;;;2.25;;
35632;SDS011;21754;48.216;-1.628;2023-05-07T01:14:12;2.87;;;1.63;;
35632;SDS011;21754;48.216;-1.628;2023-05-07T01:16:38;5.72;;;2.15;;
35632;SDS011;21754;48.216;-1.628;2023-05-07T01:19:05;6.10;;;1.77;;
35632;SDS011;21754;48.216;-1.628;2023-05-07T01:21:32;6.07;;;2.13;;
35632;SDS011;21754;48.216;-1.628;2023-05-07T01:24:02;7.88;;;2.33;;
35632;SDS011;21754;48.216;-1.628;2023-05-07T01:26:28;2.25;;;1.55;;
35632;SDS011;21754;48.216;-1.628;2023-05-07T01:28:54;4.43;;;1.90;;
35632;SDS011;21754;48.216;-1.628;2023-05-07T01:31:20;4.00;;;1.95;;
35632;SDS011;21754;48.216;-1.628;2023-05-07T01:33:46;7.25;;;1.63;;
35632;SDS011;21754;48.216;-1.628;2023-05-07T01:36:14;2.35;;;1.92;;
35632;SDS011;21754;48.216;-1.628;2023-05-07T01:38:40;10.00;;;1.77;;
35632;SDS011;21754;48.216;-1.628;2023-05-07T01:41:06;10.13;;;1.70;;
35632;SDS011;21754;48.216;-1.628;2023-05-07T01:43:32;4.22;;;1.70;;
35632;SDS011;21754;48.216;-1.628;2023-05-07T01:45:59;4.10;;;2.22;;
35632;SDS011;21754;48.216;-1.628;2023-05-07T01:48:25;4.88;;;1.77;;
35632;SDS011;21754;48.216;-1.628;2023-05-07T01:50:51;3.97;;;3.67;;
35632;SDS011;21754;48.216;-1.628;2023-05-07T01:53:18;2.35;;;1.75;;
35632;SDS011;21754;48.216;-1.628;2023-05-07T01:55:44;3.33;;;1.60;;
35632;SDS011;21754;48.216;-1.628;2023-05-07T01:58:10;4.28;;;1.88;;
35632;SDS011;21754;48.216;-1.628;2023-05-07T02:00:36;2.33;;;1.58;;
35632;SDS011;21754;48.216;-1.628;2023-05-07T02:03:02;5.60;;;1.92;;
35632;SDS011;21754;48.216;-1.628;2023-05-07T02:05:28;4.30;;;1.70;;
35632;SDS011;21754;48.216;-1.628;2023-05-07T02:07:54;2.78;;;2.08;;
35632;SDS011;21754;48.216;-1.628;2023-05-07T02:10:20;2.75;;;2.55;;
35632;SDS011;21754;48.216;-1.628;2023-05-07T02:12:46;6.47;;;2.17;;
35632;SDS011;21754;48.216;-1.628;2023-05-07T02:15:12;6.50;;;2.10;;
35632;SDS011;21754;48.216;-1.628;2023-05-07T02:20:24;5.20;;;1.88;;
35632;SDS011;21754;48.216;-1.628;2023-05-07T02:22:50;4.15;;;1.60;;
35632;SDS011;21754;48.216;-1.628;2023-05-07T02:25:16;2.78;;;1.75;;
35632;SDS011;21754;48.216;-1.628;2023-05-07T02:27:42;2.90;;;1.50;;
35632;SDS011;21754;48.216;-1.628;2023-05-07T02:30:08;2.25;;;1.80;;
35632;SDS011;21754;48.216;-1.628;2023-05-07T02:32:34;7.15;;;2.00;;
35632;SDS011;21754;48.216;-1.628;2023-05-07T02:35:00;4.80;;;2.50;;
35632;SDS011;21754;48.216;-1.628;2023-05-07T02:37:26;5.72;;;2.47;;
35632;SDS011;21754;48.216;-1.628;2023-05-07T02:39:52;7.15;;;2.17;;
35632;SDS011;21754;48.216;-1.628;2023-05-07T02:42:18;3.45;;;2.30;;
35632;SDS011;21754;48.216;-1.628;2023-05-07T02:44:44;4.05;;;1.90;;
35632;SDS011;21754;48.216;-1.628;2023-05-07T02:47:10;10.85;;;1.80;;
35632;SDS011;21754;48.216;-1.628;2023-05-07T02:49:38;4.28;;;2.15;;
35632;SDS011;21754;48.216;-1.628;2023-05-07T02:52:04;3.78;;;1.83;;
35632;SDS011;21754;48.216;-1.628;2023-05-07T02:54:30;2.60;;;2.00;;
35632;SDS011;21754;48.216;-1.628;2023-05-07T02:56:56;9.23;;;2.30;;
35632;SDS011;21754;48.216;-1.628;2023-05-07T02:59:23;3.17;;;2.42;;
35632;SDS011;21754;48.216;-1.628;2023-05-07T03:01:49;3.55;;;2.33;;
35632;SDS011;21754;48.216;-1.628;2023-05-07T03:04:15;5.90;;;2.05;;
35632;SDS011;21754;48.216;-1.628;2023-05-07T03:06:41;8.70;;;2.22;;
35632;SDS011;21754;48.216;-1.628;2023-05-07T03:09:07;4.78;;;2.25;;
35632;SDS011;21754;48.216;-1.628;2023-05-07T03:11:33;11.20;;;2.72;;
35632;SDS011;21754;48.216;-1.628;2023-05-07T03:14:00;6.20;;;1.97;;
35632;SDS011;21754;48.216;-1.628;2023-05-07T03:16:26;15.48;;;2.47;;
35632;SDS011;21754;48.216;-1.628;2023-05-07T03:18:52;4.40;;;2.33;;
35632;SDS011;21754;48.216;-1.628;2023-05-07T03:21:18;6.72;;;2.15;;
35632;SDS011;21754;48.216;-1.628;2023-05-07T03:23:45;7.18;;;2.03;;
35632;SDS011;21754;48.216;-1.628;2023-05-07T03:26:11;3.38;;;2.38;;
35632;SDS011;21754;48.216;-1.628;2023-05-07T03:28:37;3.80;;;2.30;;
35632;SDS011;21754;48.216;-1.628;2023-05-07T03:31:03;6.30;;;2.55;;
35632;SDS011;21754;48.216;-1.628;2023-05-07T03:33:29;8.63;;;2.55;;
35632;SDS011;21754;48.216;-1.628;2023-05-07T03:35:55;8.98;;;2.80;;
35632;SDS011;21754;48.216;-1.628;2023-05-07T03:38:21;4.28;;;2.03;;
35632;SDS011;21754;48.216;-1.628;2023-05-07T03:40:47;11.65;;;2.60;;
35632;SDS011;21754;48.216;-1.628;2023-05-07T03:43:13;5.25;;;2.67;;
35632;SDS011;21754;48.216;-1.628;2023-05-07T03:45:39;6.72;;;2.83;;
35632;SDS011;21754;48.216;-1.628;2023-05-07T03:48:05;5.93;;;2.90;;
35632;SDS011;21754;48.216;-1.628;2023-05-07T03:50:31;5.70;;;2.95;;
35632;SDS011;21754;48.216;-1.628;2023-05-07T03:52:57;11.90;;;2.78;;
35632;SDS011;21754;48.216;-1.628;2023-05-07T03:55:23;3.72;;;2.13;;
35632;SDS011;21754;48.216;-1.628;2023-05-07T03:57:50;5.13;;;2.35;;
35632;SDS011;21754;48.216;-1.628;2023-05-07T04:00:16;3.20;;;2.50;;
35632;SDS011;21754;48.216;-1.628;2023-05-07T04:02:42;7.50;;;2.53;;
35632;SDS011;21754;48.216;-1.628;2023-05-07T04:05:08;4.78;;;2.80;;
35632;SDS011;21754;48.216;-1.628;2023-05-07T04:07:34;7.22;;;2.15;;
35632;SDS011;21754;48.216;-1.628;2023-05-07T04:10:00;4.45;;;2.28;;
35632;SDS011;21754;48.216;-1.628;2023-05-07T04:12:27;16.98;;;3.15;;
35632;SDS011;21754;48.216;-1.628;2023-05-07T04:14:53;3.85;;;2.45;;
35632;SDS011;21754;48.216;-1.628;2023-05-07T04:17:19;7.60;;;2.67;;
35632;SDS011;21754;48.216;-1.628;2023-05-07T04:19:45;7.88;;;2.47;;
35632;SDS011;21754;48.216;-1.628;2023-05-07T04:22:11;9.15;;;3.00;;
35632;SDS011;21754;48.216;-1.628;2023-05-07T04:24:37;5.40;;;2.30;;
35632;SDS011;21754;48.216;-1.628;2023-05-07T04:27:03;6.30;;;2.78;;
35632;SDS011;21754;48.216;-1.628;2023-05-07T04:29:31;8.73;;;3.20;;
35632;SDS011;21754;48.216;-1.628;2023-05-07T04:31:57;3.47;;;2.85;;
35632;SDS011;21754;48.216;-1.628;2023-05-07T04:34:23;7.05;;;2.20;;
35632;SDS011;21754;48.216;-1.628;2023-05-07T04:36:49;6.03;;;2.35;;
35632;SDS011;21754;48.216;-1.628;2023-05-07T04:39:15;6.85;;;3.22;;
35632;SDS011;21754;48.216;-1.628;2023-05-07T04:41:41;7.57;;;2.95;;
35632;SDS011;21754;48.216;-1.628;2023-05-07T04:44:07;9.88;;;3.28;;
35632;SDS011;21754;48.216;-1.628;2023-05-07T04:46:34;14.60;;;3.78;;
35632;SDS011;21754;48.216;-1.628;2023-05-07T04:49:00;5.63;;;2.75;;
35632;SDS011;21754;48.216;-1.628;2023-05-07T04:51:26;11.00;;;3.03;;
35632;SDS011;21754;48.216;-1.628;2023-05-07T04:53:52;7.25;;;2.55;;
35632;SDS011;21754;48.216;-1.628;2023-05-07T04:56:18;5.60;;;3.25;;
35632;SDS011;21754;48.216;-1.628;2023-05-07T04:58:45;5.57;;;2.30;;
35632;SDS011;21754;48.216;-1.628;2023-05-07T05:01:11;6.45;;;3.58;;
35632;SDS011;21754;48.216;-1.628;2023-05-07T05:03:37;13.82;;;2.13;;
35632;SDS011;21754;48.216;-1.628;2023-05-07T05:06:04;6.50;;;2.60;;
35632;SDS011;21754;48.216;-1.628;2023-05-07T05:08:30;8.30;;;2.60;;
35632;SDS011;21754;48.216;-1.628;2023-05-07T05:10:56;9.43;;;2.50;;
35632;SDS011;21754;48.216;-1.628;2023-05-07T05:13:23;4.28;;;3.03;;
35632;SDS011;21754;48.216;-1.628;2023-05-07T05:15:49;10.40;;;2.53;;
35632;SDS011;21754;48.216;-1.628;2023-05-07T05:18:15;3.80;;;2.70;;
35632;SDS011;21754;48.216;-1.628;2023-05-07T05:20:41;7.20;;;2.58;;
35632;SDS011;21754;48.216;-1.628;2023-05-07T05:23:07;3.55;;;2.80;;
35632;SDS011;21754;48.216;-1.628;2023-05-07T05:25:33;4.72;;;2.50;;
35632;SDS011;21754;48.216;-1.628;2023-05-07T05:27:59;6.95;;;3.25;;
35632;SDS011;21754;48.216;-1.628;2023-05-07T05:30:26;3.65;;;2.95;;
35632;SDS011;21754;48.216;-1.628;2023-05-07T05:32:52;6.03;;;2.65;;
35632;SDS011;21754;48.216;-1.628;2023-05-07T05:35:18;6.00;;;3.45;;
35632;SDS011;21754;48.216;-1.628;2023-05-07T05:37:44;4.50;;;2.58;;
35632;SDS011;21754;48.216;-1.628;2023-05-07T05:40:10;9.95;;;2.83;;
35632;SDS011;21754;48.216;-1.628;2023-05-07T05:42:36;4.00;;;3.30;;
35632;SDS011;21754;48.216;-1.628;2023-05-07T05:45:02;3.85;;;3.03;;
35632;SDS011;21754;48.216;-1.628;2023-05-07T05:47:29;4.82;;;2.65;;
35632;SDS011;21754;48.216;-1.628;2023-05-07T05:49:55;8.50;;;4.38;;
35632;SDS011;21754;48.216;-1.628;2023-05-07T05:52:21;3.20;;;2.78;;
35632;SDS011;21754;48.216;-1.628;2023-05-07T05:54:48;5.50;;;2.45;;
35632;SDS011;21754;48.216;-1.628;2023-05-07T05:57:15;5.80;;;2.05;;
35632;SDS011;21754;48.216;-1.628;2023-05-07T05:59:41;18.92;;;2.95;;
35632;SDS011;21754;48.216;-1.628;2023-05-07T06:02:07;1.85;;;1.75;;
35632;SDS011;21754;48.216;-1.628;2023-05-07T06:04:33;1.50;;;1.40;;
35632;SDS011;21754;48.216;-1.628;2023-05-07T06:06:59;1.42;;;1.33;;
35632;SDS011;21754;48.216;-1.628;2023-05-07T06:09:25;1.70;;;1.60;;
35632;SDS011;21754;48.216;-1.628;2023-05-07T06:11:51;1.80;;;1.70;;
35632;SDS011;21754;48.216;-1.628;2023-05-07T06:14:17;1.55;;;1.45;;
35632;SDS011;21754;48.216;-1.628;2023-05-07T06:16:43;1.55;;;1.30;;
35632;SDS011;21754;48.216;-1.628;2023-05-07T06:19:09;3.20;;;1.58;;
35632;SDS011;21754;48.216;-1.628;2023-05-07T06:21:35;1.58;;;1.48;;
35632;SDS011;21754;48.216;-1.628;2023-05-07T06:24:01;3.05;;;2.70;;
35632;SDS011;21754;48.216;-1.628;2023-05-07T06:26:27;5.30;;;2.20;;
35632;SDS011;21754;48.216;-1.628;2023-05-07T06:28:53;3.47;;;3.08;;
35632;SDS011;21754;48.216;-1.628;2023-05-07T06:31:19;5.72;;;3.60;;
35632;SDS011;21754;48.216;-1.628;2023-05-07T06:33:46;5.78;;;4.22;;
35632;SDS011;21754;48.216;-1.628;2023-05-07T06:36:12;6.65;;;4.63;;
35632;SDS011;21754;48.216;-1.628;2023-05-07T06:38:38;8.23;;;5.50;;
35632;SDS011;21754;48.216;-1.628;2023-05-07T06:41:05;7.72;;;5.95;;
35632;SDS011;21754;48.216;-1.628;2023-05-07T06:43:31;15.45;;;6.10;;
35632;SDS011;21754;48.216;-1.628;2023-05-07T06:45:57;8.70;;;5.20;;
35632;SDS011;21754;48.216;-1.628;2023-05-07T06:48:23;7.15;;;6.43;;
35632;SDS011;21754;48.216;-1.628;2023-05-07T06:50:49;7.50;;;5.43;;
35632;SDS011;21754;48.216;-1.628;2023-05-07T06:53:15;13.70;;;6.60;;
35632;SDS011;21754;48.216;-1.628;2023-05-07T06:55:41;7.68;;;6.57;;
35632;SDS011;21754;48.216;-1.628;2023-05-07T06:58:07;10.68;;;6.28;;
35632;SDS011;21754;48.216;-1.628;2023-05-07T07:00:33;11.70;;;6.50;;
35632;SDS011;21754;48.216;-1.628;2023-05-07T07:03:00;12.73;;;6.35;;
35632;SDS011;21754;48.216;-1.628;2023-05-07T07:05:26;11.68;;;8.38;;
35632;SDS011;21754;48.216;-1.628;2023-05-07T07:07:52;11.82;;;7.90;;
35632;SDS011;21754;48.216;-1.628;2023-05-07T07:10:21;12.50;;;7.43;;
35632;SDS011;21754;48.216;-1.628;2023-05-07T07:12:48;12.30;;;7.25;;
35632;SDS011;21754;48.216;-1.628;2023-05-07T07:15:14;16.50;;;8.32;;
35632;SDS011;21754;48.216;-1.628;2023-05-07T07:17:40;11.85;;;7.35;;
35632;SDS011;21754;48.216;-1.628;2023-05-07T07:20:07;15.65;;;7.68;;
35632;SDS011;21754;48.216;-1.628;2023-05-07T07:22:33;13.40;;;7.28;;
35632;SDS011;21754;48.216;-1.628;2023-05-07T07:24:59;15.93;;;7.05;;
35632;SDS011;21754;48.216;-1.628;2023-05-07T07:27:25;9.68;;;6.43;;
35632;SDS011;21754;48.216;-1.628;2023-05-07T07:29:51;11.48;;;6.15;;
35632;SDS011;21754;48.216;-1.628;2023-05-07T07:32:17;11.75;;;6.55;;
35632;SDS011;21754;48.216;-1.628;2023-05-07T07:34:43;8.95;;;5.15;;
35632;SDS011;21754;48.216;-1.628;2023-05-07T07:37:09;12.43;;;5.80;;
35632;SDS011;21754;48.216;-1.628;2023-05-07T07:39:35;6.88;;;5.20;;
35632;SDS011;21754;48.216;-1.628;2023-05-07T07:42:02;7.83;;;4.83;;
35632;SDS011;21754;48.216;-1.628;2023-05-07T07:44:28;8.25;;;4.88;;
35632;SDS011;21754;48.216;-1.628;2023-05-07T07:46:55;7.40;;;4.53;;
35632;SDS011;21754;48.216;-1.628;2023-05-07T07:49:21;11.25;;;5.25;;
35632;SDS011;21754;48.216;-1.628;2023-05-07T07:51:47;11.70;;;5.90;;
35632;SDS011;21754;48.216;-1.628;2023-05-07T07:54:13;8.68;;;5.65;;
35632;SDS011;21754;48.216;-1.628;2023-05-07T07:56:39;7.13;;;4.55;;
35632;SDS011;21754;48.216;-1.628;2023-05-07T07:59:05;11.52;;;6.55;;
35632;SDS011;21754;48.216;-1.628;2023-05-07T08:01:31;11.85;;;5.32;;
35632;SDS011;21754;48.216;-1.628;2023-05-07T08:03:57;10.25;;;5.28;;
35632;SDS011;21754;48.216;-1.628;2023-05-07T08:06:24;11.13;;;5.38;;
35632;SDS011;21754;48.216;-1.628;2023-05-07T08:08:50;6.82;;;4.75;;
35632;SDS011;21754;48.216;-1.628;2023-05-07T08:11:17;10.95;;;5.30;;
35632;SDS011;21754;48.216;-1.628;2023-05-07T08:13:43;10.18;;;5.63;;
35632;SDS011;21754;48.216;-1.628;2023-05-07T08:16:10;6.05;;;4.80;;
35632;SDS011;21754;48.216;-1.628;2023-05-07T08:18:36;9.98;;;4.97;;
35632;SDS011;21754;48.216;-1.628;2023-05-07T08:21:02;8.75;;;4.97;;
35632;SDS011;21754;48.216;-1.628;2023-05-07T08:23:28;9.90;;;5.00;;
35632;SDS011;21754;48.216;-1.628;2023-05-07T08:25:55;10.23;;;4.88;;
35632;SDS011;21754;48.216;-1.628;2023-05-07T08:28:21;4.82;;;3.60;;
35632;SDS011;21754;48.216;-1.628;2023-05-07T08:30:49;7.18;;;3.88;;
35632;SDS011;21754;48.216;-1.628;2023-05-07T08:33:15;6.50;;;4.25;;
35632;SDS011;21754;48.216;-1.628;2023-05-07T08:35:42;8.48;;;4.18;;
35632;SDS011;21754;48.216;-1.628;2023-05-07T08:38:08;4.80;;;4.28;;
35632;SDS011;21754;48.216;-1.628;2023-05-07T08:40:36;4.65;;;4.15;;
35632;SDS011;21754;48.216;-1.628;2023-05-07T08:43:04;19.20;;;5.78;;
35632;SDS011;21754;48.216;-1.628;2023-05-07T08:45:30;8.48;;;4.00;;
35632;SDS011;21754;48.216;-1.628;2023-05-07T08:47:58;6.63;;;4.50;;
35632;SDS011;21754;48.216;-1.628;2023-05-07T08:50:25;5.70;;;4.13;;
35632;SDS011;21754;48.216;-1.628;2023-05-07T08:52:51;5.90;;;3.72;;
35632;SDS011;21754;48.216;-1.628;2023-05-07T08:55:17;4.38;;;3.67;;
35632;SDS011;21754;48.216;-1.628;2023-05-07T08:57:44;8.90;;;3.67;;
35632;SDS011;21754;48.216;-1.628;2023-05-07T09:00:10;6.18;;;3.90;;
35632;SDS011;21754;48.216;-1.628;2023-05-07T09:02:36;4.28;;;3.40;;
35632;SDS011;21754;48.216;-1.628;2023-05-07T09:05:02;5.22;;;3.38;;
35632;SDS011;21754;48.216;-1.628;2023-05-07T09:07:29;7.20;;;4.22;;
35632;SDS011;21754;48.216;-1.628;2023-05-07T09:09:55;4.57;;;4.18;;
35632;SDS011;21754;48.216;-1.628;2023-05-07T09:12:23;5.03;;;4.53;;
35632;SDS011;21754;48.216;-1.628;2023-05-07T09:14:49;3.78;;;3.33;;
35632;SDS011;21754;48.216;-1.628;2023-05-07T09:17:16;4.05;;;3.63;;
35632;SDS011;21754;48.216;-1.628;2023-05-07T09:19:43;4.70;;;3.30;;
35632;SDS011;21754;48.216;-1.628;2023-05-07T09:22:10;5.40;;;3.63;;
35632;SDS011;21754;48.216;-1.628;2023-05-07T09:24:36;7.45;;;3.97;;
35632;SDS011;21754;48.216;-1.628;2023-05-07T09:27:06;5.88;;;4.47;;
35632;SDS011;21754;48.216;-1.628;2023-05-07T09:29:33;7.97;;;4.82;;
35632;SDS011;21754;48.216;-1.628;2023-05-07T09:32:03;4.50;;;3.97;;
35632;SDS011;21754;48.216;-1.628;2023-05-07T09:34:30;5.20;;;4.72;;
35632;SDS011;21754;48.216;-1.628;2023-05-07T09:37:06;4.63;;;4.18;;
35632;SDS011;21754;48.216;-1.628;2023-05-07T09:39:42;4.65;;;3.78;;
35632;SDS011;21754;48.216;-1.628;2023-05-07T09:42:09;3.50;;;3.20;;
35632;SDS011;21754;48.216;-1.628;2023-05-07T09:44:36;3.08;;;2.05;;
35632;SDS011;21754;48.216;-1.628;2023-05-07T09:47:04;4.28;;;2.33;;
35632;SDS011;21754;48.216;-1.628;2023-05-07T09:49:30;2.40;;;2.05;;
35632;SDS011;21754;48.216;-1.628;2023-05-07T09:51:59;2.13;;;2.03;;
35632;SDS011;21754;48.216;-1.628;2023-05-07T09:54:25;2.95;;;2.75;;
35632;SDS011;21754;48.216;-1.628;2023-05-07T09:56:54;6.05;;;2.42;;
35632;SDS011;21754;48.216;-1.628;2023-05-07T09:59:21;2.88;;;2.60;;
35632;SDS011;21754;48.216;-1.628;2023-05-07T10:01:47;3.75;;;2.67;;
35632;SDS011;21754;48.216;-1.628;2023-05-07T10:04:14;5.03;;;2.70;;
35632;SDS011;21754;48.216;-1.628;2023-05-07T10:06:40;3.63;;;3.38;;
35632;SDS011;21754;48.216;-1.628;2023-05-07T10:09:07;2.92;;;2.63;;
35632;SDS011;21754;48.216;-1.628;2023-05-07T10:11:33;5.47;;;3.60;;
35632;SDS011;21754;48.216;-1.628;2023-05-07T10:14:00;3.10;;;2.80;;
35632;SDS011;21754;48.216;-1.628;2023-05-07T10:16:27;4.63;;;3.35;;
35632;SDS011;21754;48.216;-1.628;2023-05-07T10:18:53;4.05;;;2.95;;
35632;SDS011;21754;48.216;-1.628;2023-05-07T10:21:21;5.07;;;3.80;;
35632;SDS011;21754;48.216;-1.628;2023-05-07T10:23:51;5.68;;;3.33;;
35632;SDS011;21754;48.216;-1.628;2023-05-07T10:26:19;5.45;;;3.38;;
35632;SDS011;21754;48.216;-1.628;2023-05-07T10:28:46;4.00;;;3.60;;
35632;SDS011;21754;48.216;-1.628;2023-05-07T10:31:29;8.57;;;3.63;;
35632;SDS011;21754;48.216;-1.628;2023-05-07T10:33:59;3.53;;;2.90;;
35632;SDS011;21754;48.216;-1.628;2023-05-07T10:36:27;3.72;;;3.20;;
35632;SDS011;21754;48.216;-1.628;2023-05-07T10:38:53;4.18;;;3.03;;
35632;SDS011;21754;48.216;-1.628;2023-05-07T10:41:19;5.00;;;4.35;;
35632;SDS011;21754;48.216;-1.628;2023-05-07T10:43:46;2.85;;;2.60;;
35632;SDS011;21754;48.216;-1.628;2023-05-07T10:46:16;5.70;;;3.05;;
35632;SDS011;21754;48.216;-1.628;2023-05-07T10:51:28;5.65;;;3.75;;
35632;SDS011;21754;48.216;-1.628;2023-05-07T10:56:36;4.00;;;2.95;;
35632;SDS011;21754;48.216;-1.628;2023-05-07T11:04:18;2.33;;;2.13;;
35632;SDS011;21754;48.216;-1.628;2023-05-07T11:17:29;5.38;;;2.78;;
35632;SDS011;21754;48.216;-1.628;2023-05-07T11:19:57;3.75;;;2.22;;
35632;SDS011;21754;48.216;-1.628;2023-05-07T11:25:00;5.18;;;2.17;;
35632;SDS011;21754;48.216;-1.628;2023-05-07T11:27:27;5.97;;;3.25;;
35632;SDS011;21754;48.216;-1.628;2023-05-07T11:29:53;2.40;;;2.20;;
35632;SDS011;21754;48.216;-1.628;2023-05-07T11:32:22;4.07;;;2.03;;
35632;SDS011;21754;48.216;-1.628;2023-05-07T11:34:52;3.72;;;2.92;;
35632;SDS011;21754;48.216;-1.628;2023-05-07T11:37:18;2.83;;;2.25;;
35632;SDS011;21754;48.216;-1.628;2023-05-07T11:39:45;4.05;;;2.33;;
35632;SDS011;21754;48.216;-1.628;2023-05-07T11:42:31;3.75;;;2.90;;
35632;SDS011;21754;48.216;-1.628;2023-05-07T11:44:57;3.05;;;2.60;;
35632;SDS011;21754;48.216;-1.628;2023-05-07T11:47:23;7.25;;;4.35;;
35632;SDS011;21754;48.216;-1.628;2023-05-07T11:49:53;8.00;;;4.10;;
35632;SDS011;21754;48.216;-1.628;2023-05-07T11:52:24;5.95;;;2.97;;
35632;SDS011;21754;48.216;-1.628;2023-05-07T11:54:57;8.50;;;3.30;;
35632;SDS011;21754;48.216;-1.628;2023-05-07T11:57:24;10.90;;;3.08;;
35632;SDS011;21754;48.216;-1.628;2023-05-07T11:59:54;5.97;;;2.70;;
35632;SDS011;21754;48.216;-1.628;2023-05-07T12:02:20;6.85;;;2.83;;
35632;SDS011;21754;48.216;-1.628;2023-05-07T12:04:46;4.10;;;2.35;;
35632;SDS011;21754;48.216;-1.628;2023-05-07T12:07:13;7.20;;;3.05;;
35632;SDS011;21754;48.216;-1.628;2023-05-07T12:09:40;4.90;;;2.63;;
35632;SDS011;21754;48.216;-1.628;2023-05-07T12:12:06;4.38;;;2.03;;
35632;SDS011;21754;48.216;-1.628;2023-05-07T12:14:32;5.75;;;2.28;;
35632;SDS011;21754;48.216;-1.628;2023-05-07T12:16:59;15.40;;;2.92;;
35632;SDS011;21754;48.216;-1.628;2023-05-07T12:19:28;5.05;;;2.80;;
35632;SDS011;21754;48.216;-1.628;2023-05-07T12:21:54;6.15;;;2.70;;
35632;SDS011;21754;48.216;-1.628;2023-05-07T12:24:21;8.27;;;2.60;;
35632;SDS011;21754;48.216;-1.628;2023-05-07T12:26:47;8.18;;;2.85;;
35632;SDS011;21754;48.216;-1.628;2023-05-07T12:29:14;3.70;;;2.60;;
35632;SDS011;21754;48.216;-1.628;2023-05-07T12:31:43;3.13;;;2.17;;
35632;SDS011;21754;48.216;-1.628;2023-05-07T12:34:12;6.13;;;2.45;;
35632;SDS011;21754;48.216;-1.628;2023-05-07T12:36:38;4.65;;;2.33;;
35632;SDS011;21754;48.216;-1.628;2023-05-07T12:39:05;5.13;;;2.28;;
35632;SDS011;21754;48.216;-1.628;2023-05-07T12:41:35;9.02;;;2.75;;
35632;SDS011;21754;48.216;-1.628;2023-05-07T12:44:03;2.90;;;2.28;;
35632;SDS011;21754;48.216;-1.628;2023-05-07T12:46:30;5.05;;;2.63;;
35632;SDS011;21754;48.216;-1.628;2023-05-07T12:48:56;2.47;;;1.85;;
35632;SDS011;21754;48.216;-1.628;2023-05-07T12:51:22;8.63;;;3.97;;
35632;SDS011;21754;48.216;-1.628;2023-05-07T12:53:48;9.50;;;4.55;;
35632;SDS011;21754;48.216;-1.628;2023-05-07T12:56:15;31.80;;;3.83;;
35632;SDS011;21754;48.216;-1.628;2023-05-07T12:58:41;5.05;;;1.80;;
35632;SDS011;21754;48.216;-1.628;2023-05-07T13:01:07;3.88;;;2.10;;
35632;SDS011;21754;48.216;-1.628;2023-05-07T13:03:35;1.67;;;1.35;;
35632;SDS011;21754;48.216;-1.628;2023-05-07T13:06:05;8.80;;;2.50;;
35632;SDS011;21754;48.216;-1.628;2023-05-07T13:08:33;6.22;;;1.80;;
35632;SDS011;21754;48.216;-1.628;2023-05-07T13:11:00;11.63;;;2.58;;
35632;SDS011;21754;48.216;-1.628;2023-05-07T13:13:28;3.78;;;1.80;;
35632;SDS011;21754;48.216;-1.628;2023-05-07T13:15:54;3.42;;;2.38;;
35632;SDS011;21754;48.216;-1.628;2023-05-07T13:18:20;5.30;;;1.70;;
35632;SDS011;21754;48.216;-1.628;2023-05-07T13:20:47;2.85;;;1.50;;
35632;SDS011;21754;48.216;-1.628;2023-05-07T13:23:13;3.95;;;2.13;;
35632;SDS011;21754;48.216;-1.628;2023-05-07T13:25:39;5.32;;;2.83;;
35632;SDS011;21754;48.216;-1.628;2023-05-07T13:28:05;1.85;;;1.17;;
35632;SDS011;21754;48.216;-1.628;2023-05-07T13:30:31;1.80;;;1.52;;
35632;SDS011;21754;48.216;-1.628;2023-05-07T13:32:57;2.08;;;1.13;;
35632;SDS011;21754;48.216;-1.628;2023-05-07T13:35:23;2.05;;;1.52;;
35632;SDS011;21754;48.216;-1.628;2023-05-07T13:37:49;7.93;;;2.13;;
35632;SDS011;21754;48.216;-1.628;2023-05-07T13:40:17;5.13;;;1.50;;
35632;SDS011;21754;48.216;-1.628;2023-05-07T13:42:43;2.97;;;1.45;;
35632;SDS011;21754;48.216;-1.628;2023-05-07T13:45:10;3.20;;;1.55;;
35632;SDS011;21754;48.216;-1.628;2023-05-07T13:47:38;1.60;;;1.45;;
35632;SDS011;21754;48.216;-1.628;2023-05-07T13:50:05;2.65;;;1.15;;
35632;SDS011;21754;48.216;-1.628;2023-05-07T13:52:31;5.88;;;1.27;;
35632;SDS011;21754;48.216;-1.628;2023-05-07T13:54:57;3.03;;;1.27;;
35632;SDS011;21754;48.216;-1.628;2023-05-07T13:57:23;3.53;;;0.93;;
35632;SDS011;21754;48.216;-1.628;2023-05-07T13:59:49;2.83;;;1.08;;
35632;SDS011;21754;48.216;-1.628;2023-05-07T14:02:15;1.30;;;1.00;;
35632;SDS011;21754;48.216;-1.628;2023-05-07T14:04:41;2.75;;;1.30;;
35632;SDS011;21754;48.216;-1.628;2023-05-07T14:07:08;5.03;;;3.13;;
35632;SDS011;21754;48.216;-1.628;2023-05-07T14:09:34;1.70;;;1.23;;
35632;SDS011;21754;48.216;-1.628;2023-05-07T14:12:00;1.58;;;1.10;;
35632;SDS011;21754;48.216;-1.628;2023-05-07T14:14:26;2.38;;;1.42;;
35632;SDS011;21754;48.216;-1.628;2023-05-07T14:16:52;4.88;;;1.33;;
35632;SDS011;21754;48.216;-1.628;2023-05-07T14:19:18;4.93;;;0.98;;
35632;SDS011;21754;48.216;-1.628;2023-05-07T14:21:44;3.63;;;1.38;;
35632;SDS011;21754;48.216;-1.628;2023-05-07T14:24:10;1.23;;;0.95;;
35632;SDS011;21754;48.216;-1.628;2023-05-07T14:26:36;3.40;;;1.42;;
35632;SDS011;21754;48.216;-1.628;2023-05-07T14:29:02;4.18;;;1.33;;
35632;SDS011;21754;48.216;-1.628;2023-05-07T14:31:28;1.65;;;1.20;;
35632;SDS011;21754;48.216;-1.628;2023-05-07T14:33:54;1.23;;;1.10;;
35632;SDS011;21754;48.216;-1.628;2023-05-07T14:36:22;5.68;;;1.55;;
35632;SDS011;21754;48.216;-1.628;2023-05-07T14:38:51;1.98;;;1.10;;
35632;SDS011;21754;48.216;-1.628;2023-05-07T14:43:45;6.55;;;1.15;;
35632;SDS011;21754;48.216;-1.628;2023-05-07T14:46:15;4.65;;;1.33;;
35632;SDS011;21754;48.216;-1.628;2023-05-07T14:48:41;2.97;;;1.43;;
35632;SDS011;21754;48.216;-1.628;2023-05-07T14:51:07;3.65;;;1.20;;
35632;SDS011;21754;48.216;-1.628;2023-05-07T14:53:33;4.43;;;1.25;;
35632;SDS011;21754;48.216;-1.628;2023-05-07T14:55:59;3.67;;;1.67;;
35632;SDS011;21754;48.216;-1.628;2023-05-07T14:58:25;3.88;;;1.77;;